createdAt,value
2023-01-26T00:00:24.268Z,101503.38
2023-01-26T00:02:52.765Z,101505.94
2023-01-26T00:05:21.288Z,101500.69
2023-01-26T00:07:49.771Z,101510.06
2023-01-26T00:10:18.276Z,101508.31
2023-01-26T00:12:46.777Z,101494.50
2023-01-26T00:15:15.289Z,101491.91
2023-01-26T00:17:46.321Z,101491.06
2023-01-26T00:20:14.941Z,101491.97
2023-01-26T00:22:43.639Z,101493.72
2023-01-26T00:25:12.405Z,101485.97
2023-01-26T00:27:40.628Z,101488.50
2023-01-26T00:30:10.940Z,101482.44
2023-01-26T00:32:39.896Z,101480.72
2023-01-26T00:35:10.585Z,101470.38
2023-01-26T00:37:39.107Z,101465.19
2023-01-26T00:40:08.357Z,101466.94
2023-01-26T00:42:37.001Z,101463.53
2023-01-26T00:45:06.893Z,101468.72
2023-01-26T00:47:35.424Z,101466.94
2023-01-26T00:50:04.681Z,101461.78
2023-01-26T00:52:34.382Z,101457.47
2023-01-26T00:55:02.891Z,101455.78
2023-01-26T00:57:31.390Z,101454.88
2023-01-26T00:59:59.926Z,101461.69
2023-01-26T01:02:28.707Z,101464.25
2023-01-26T01:04:57.200Z,101466.78
2023-01-26T01:07:27.946Z,101454.72
2023-01-26T01:09:57.475Z,101463.25
2023-01-26T01:12:26.003Z,101464.97
2023-01-26T01:14:56.535Z,101458.94
2023-01-26T01:17:25.661Z,101461.53
2023-01-26T01:19:54.205Z,101462.41
2023-01-26T01:22:23.552Z,101463.28
2023-01-26T01:24:52.253Z,101465.84
2023-01-26T01:27:21.844Z,101459.88
2023-01-26T01:29:51.234Z,101461.63
2023-01-26T01:32:20.476Z,101457.28
2023-01-26T01:34:48.909Z,101453.00
2023-01-26T01:37:18.232Z,101458.22
2023-01-26T01:39:46.443Z,101460.75
2023-01-26T01:42:14.955Z,101459.88
2023-01-26T01:45:06.386Z,101452.13
2023-01-26T01:47:34.686Z,101451.28
2023-01-26T01:50:04.332Z,101456.38
2023-01-26T01:52:33.168Z,101451.19
2023-01-26T01:55:07.486Z,101461.47
2023-01-26T01:57:45.722Z,101451.03
2023-01-26T02:00:19.582Z,101444.94
2023-01-26T02:03:09.016Z,101448.34
2023-01-26T02:05:46.954Z,101452.63
2023-01-26T02:08:17.871Z,101459.56
2023-01-26T02:10:50.988Z,101454.41
2023-01-26T02:13:21.044Z,101450.13
2023-01-26T02:15:51.985Z,101444.94
2023-01-26T02:18:21.011Z,101444.13
2023-01-26T02:20:54.343Z,101438.13
2023-01-26T02:23:34.756Z,101443.34
2023-01-26T02:26:11.412Z,101439.03
2023-01-26T02:28:42.293Z,101443.38
2023-01-26T02:31:12.640Z,101435.63
2023-01-26T02:33:42.437Z,101433.09
2023-01-26T02:36:20.312Z,101437.34
2023-01-26T02:39:00.200Z,101437.34
2023-01-26T02:41:47.588Z,101439.13
2023-01-26T02:44:16.776Z,101433.09
2023-01-26T02:46:44.997Z,101425.34
2023-01-26T02:49:32.841Z,101423.63
2023-01-26T02:52:01.848Z,101428.78
2023-01-26T02:54:47.913Z,101428.78
2023-01-26T02:57:17.581Z,101422.75
2023-01-26T02:59:46.821Z,101420.97
2023-01-26T03:02:16.608Z,101415.78
2023-01-26T03:04:45.027Z,101408.03
2023-01-26T03:07:13.676Z,101414.84
2023-01-26T03:09:42.168Z,101415.72
2023-01-26T03:12:10.458Z,101405.38
2023-01-26T03:14:40.070Z,101405.44
2023-01-26T03:17:08.726Z,101397.69
2023-01-26T03:19:56.283Z,101400.28
2023-01-26T03:22:42.535Z,101395.97
2023-01-26T03:25:31.360Z,101389.94
2023-01-26T03:28:00.955Z,101385.59
2023-01-26T03:30:30.882Z,101387.34
2023-01-26T03:32:59.515Z,101389.94
2023-01-26T03:35:28.657Z,101381.31
2023-01-26T03:37:56.969Z,101378.75
2023-01-26T03:40:52.193Z,101375.25
2023-01-26T03:43:39.164Z,101371.78
2023-01-26T03:46:27.015Z,101362.25
2023-01-26T03:49:13.871Z,101359.66
2023-01-26T03:51:59.549Z,101358.78
2023-01-26T03:54:45.411Z,101350.19
2023-01-26T03:57:14.148Z,101363.97
2023-01-26T03:59:42.641Z,101360.50
2023-01-26T04:02:34.022Z,101363.97
2023-01-26T04:05:21.093Z,101345.84
2023-01-26T04:08:12.131Z,101357.06
2023-01-26T04:10:40.700Z,101358.78
2023-01-26T04:13:26.787Z,101361.34
2023-01-26T04:16:19.268Z,101360.44
2023-01-26T04:19:06.587Z,101365.44
2023-01-26T04:21:35.972Z,101361.06
2023-01-26T04:24:16.764Z,101354.13
2023-01-26T04:26:46.061Z,101366.22
2023-01-26T04:29:23.982Z,101352.47
2023-01-26T04:31:53.020Z,101350.72
2023-01-26T04:34:24.471Z,101349.03
2023-01-26T04:36:53.168Z,101340.38
2023-01-26T04:39:24.304Z,101336.03
2023-01-26T04:41:56.396Z,101336.09
2023-01-26T04:44:24.714Z,101336.97
2023-01-26T04:46:53.708Z,101333.50
2023-01-26T04:49:22.137Z,101328.34
2023-01-26T04:51:52.292Z,101330.94
2023-01-26T04:54:21.009Z,101332.59
2023-01-26T04:56:49.491Z,101323.97
2023-01-26T04:59:18.500Z,101328.22
2023-01-26T05:01:47.119Z,101328.22
2023-01-26T05:04:15.889Z,101316.13
2023-01-26T05:06:47.555Z,101316.97
2023-01-26T05:09:18.300Z,101316.13
2023-01-26T05:11:48.122Z,101314.41
2023-01-26T05:14:39.153Z,101312.63
2023-01-26T05:17:20.028Z,101308.25
2023-01-26T05:20:23.793Z,101305.56
2023-01-26T05:23:05.652Z,101303.00
2023-01-26T05:25:35.307Z,101303.00
2023-01-26T05:28:10.666Z,101318.50
2023-01-26T05:30:39.486Z,101308.16
2023-01-26T05:33:11.161Z,101321.06
2023-01-26T05:35:40.747Z,101315.00
2023-01-26T05:38:11.320Z,101313.28
2023-01-26T05:40:40.999Z,101317.56
2023-01-26T05:43:11.049Z,101317.56
2023-01-26T05:45:50.341Z,101320.13
2023-01-26T05:48:19.762Z,101315.84
2023-01-26T05:50:50.666Z,101326.16
2023-01-26T05:53:21.729Z,101314.97
2023-01-26T05:55:51.825Z,101321.00
2023-01-26T05:58:23.707Z,101327.81
2023-01-26T06:00:54.124Z,101318.38
2023-01-26T06:03:27.577Z,101327.88
2023-01-26T06:05:57.218Z,101331.34
2023-01-26T06:08:43.493Z,101336.41
2023-01-26T06:11:33.551Z,101341.50
2023-01-26T06:14:18.272Z,101343.16
2023-01-26T06:16:46.657Z,101344.00
2023-01-26T06:19:15.394Z,101352.56
2023-01-26T06:21:47.013Z,101356.00
2023-01-26T06:24:15.636Z,101360.31
2023-01-26T06:26:45.254Z,101357.75
2023-01-26T06:29:14.615Z,101356.94
2023-01-26T06:31:43.200Z,101358.66
2023-01-26T06:34:12.705Z,101357.00
2023-01-26T06:36:43.103Z,101360.47
2023-01-26T06:39:18.390Z,101367.34
2023-01-26T06:41:48.133Z,101366.50
2023-01-26T06:44:16.401Z,101372.50
2023-01-26T06:46:44.927Z,101371.63
2023-01-26T06:49:13.591Z,101371.63
2023-01-26T06:51:58.120Z,101360.41
2023-01-26T06:54:39.266Z,101360.41
2023-01-26T06:57:31.961Z,101377.66
2023-01-26T07:00:03.513Z,101365.56
2023-01-26T07:02:37.255Z,101362.16
2023-01-26T07:05:06.758Z,101360.47
2023-01-26T07:07:35.285Z,101358.81
2023-01-26T07:10:03.954Z,101359.69
2023-01-26T07:12:41.814Z,101358.81
2023-01-26T07:15:12.013Z,101358.81
2023-01-26T07:17:40.447Z,101369.16
2023-01-26T07:20:10.977Z,101369.06
2023-01-26T07:22:39.756Z,101377.66
2023-01-26T07:25:09.145Z,101375.81
2023-01-26T07:27:37.689Z,101374.06
2023-01-26T07:30:09.930Z,101372.34
2023-01-26T07:32:38.418Z,101377.41
2023-01-26T07:35:07.767Z,101377.41
2023-01-26T07:37:36.305Z,101383.41
2023-01-26T07:40:05.963Z,101379.13
2023-01-26T07:42:34.730Z,101378.25
2023-01-26T07:45:12.759Z,101386.88
2023-01-26T07:47:41.036Z,101377.41
2023-01-26T07:50:11.589Z,101378.31
2023-01-26T07:52:40.351Z,101382.66
2023-01-26T07:55:09.379Z,101384.31
2023-01-26T07:57:37.894Z,101383.47
2023-01-26T08:00:08.097Z,101380.91
2023-01-26T08:02:41.429Z,101383.53
2023-01-26T08:05:10.748Z,101380.97
2023-01-26T08:07:39.920Z,101376.66
2023-01-26T08:10:10.923Z,101378.47
2023-01-26T08:12:41.264Z,101375.94
2023-01-26T08:15:11.623Z,101382.06
2023-01-26T08:17:41.458Z,101376.97
2023-01-26T08:20:14.188Z,101383.00
2023-01-26T08:22:42.906Z,101381.41
2023-01-26T08:25:11.756Z,101386.66
2023-01-26T08:27:40.409Z,101388.41
2023-01-26T08:30:18.979Z,101387.53
2023-01-26T08:32:48.769Z,101386.75
2023-01-26T08:35:17.489Z,101403.09
2023-01-26T08:37:46.080Z,101403.13
2023-01-26T08:40:16.434Z,101399.75
2023-01-26T08:42:44.982Z,101402.41
2023-01-26T08:45:13.329Z,101398.19
2023-01-26T08:47:41.892Z,101402.56
2023-01-26T08:50:12.841Z,101400.84
2023-01-26T08:52:41.476Z,101400.84
2023-01-26T08:55:10.854Z,101396.63
2023-01-26T08:57:39.360Z,101395.81
2023-01-26T09:00:09.515Z,101390.69
2023-01-26T09:02:38.038Z,101403.56
2023-01-26T09:05:07.837Z,101413.03
2023-01-26T09:07:37.448Z,101409.53
2023-01-26T09:10:07.604Z,101410.41
2023-01-26T09:12:36.107Z,101421.63
2023-01-26T09:15:05.289Z,101417.28
2023-01-26T09:17:33.793Z,101408.69
2023-01-26T09:20:02.556Z,101407.09
2023-01-26T09:22:31.636Z,101404.53
2023-01-26T09:25:01.320Z,101407.09
2023-01-26T09:27:29.864Z,101409.69
2023-01-26T09:29:58.440Z,101406.25
2023-01-26T09:32:26.887Z,101412.34
2023-01-26T09:34:55.433Z,101409.75
2023-01-26T09:37:23.950Z,101402.88
2023-01-26T09:39:52.571Z,101410.63
2023-01-26T09:42:49.951Z,101414.09
2023-01-26T09:45:27.942Z,101406.34
2023-01-26T09:48:20.517Z,101410.72
2023-01-26T09:50:57.327Z,101405.63
2023-01-26T09:53:33.220Z,101409.91
2023-01-26T09:56:01.943Z,101406.53
2023-01-26T09:58:39.016Z,101407.41
2023-01-26T10:01:20.202Z,101407.41
2023-01-26T10:03:52.785Z,101409.91
2023-01-26T10:06:28.085Z,101399.50
2023-01-26T10:09:17.889Z,101397.84
2023-01-26T10:11:50.717Z,101392.75
2023-01-26T10:14:32.604Z,101392.69
2023-01-26T10:17:02.156Z,101397.00
2023-01-26T10:19:36.786Z,101391.00
2023-01-26T10:22:13.399Z,101384.06
2023-01-26T10:24:41.996Z,101386.66
2023-01-26T10:27:14.989Z,101385.84
2023-01-26T10:29:44.714Z,101390.91
2023-01-26T10:32:15.904Z,101389.16
2023-01-26T10:34:45.420Z,101383.13
2023-01-26T10:37:31.670Z,101382.19
2023-01-26T10:40:03.891Z,101392.53
2023-01-26T10:42:35.063Z,101380.47
2023-01-26T10:45:09.561Z,101378.75
2023-01-26T10:47:38.089Z,101378.75
2023-01-26T10:50:23.133Z,101378.72
2023-01-26T10:53:00.489Z,101374.44
2023-01-26T10:55:30.188Z,101372.66
2023-01-26T10:57:58.891Z,101371.00
2023-01-26T11:00:32.809Z,101366.69
2023-01-26T11:03:15.978Z,101365.81
2023-01-26T11:05:47.907Z,101368.41
2023-01-26T11:08:35.996Z,101360.63
2023-01-26T11:11:06.902Z,101357.22
2023-01-26T11:13:35.684Z,101355.50
2023-01-26T11:16:15.756Z,101353.75
2023-01-26T11:18:54.208Z,101351.13
2023-01-26T11:21:31.823Z,101357.16
2023-01-26T11:24:06.293Z,101345.13
2023-01-26T11:27:21.910Z,101344.31
2023-01-26T11:30:37.719Z,101346.94
2023-01-26T11:33:18.768Z,101344.31
2023-01-26T11:35:56.704Z,101346.06
2023-01-26T11:38:37.635Z,101344.38
2023-01-26T11:41:40.829Z,101340.97
2023-01-26T11:44:26.828Z,101327.13
2023-01-26T11:47:13.589Z,101315.88
2023-01-26T11:50:19.497Z,101321.91
2023-01-26T11:53:01.561Z,101325.41
2023-01-26T11:55:48.997Z,101316.78
2023-01-26T11:58:32.357Z,101316.88
2023-01-26T12:01:03.284Z,101315.13
2023-01-26T12:03:42.723Z,101317.72
2023-01-26T12:06:19.684Z,101321.25
2023-01-26T12:08:53.252Z,101313.47
2023-01-26T12:11:29.813Z,101309.97
2023-01-26T12:14:15.372Z,101313.34
2023-01-26T12:17:15.690Z,101307.22
2023-01-26T12:19:53.787Z,101308.88
2023-01-26T12:22:32.654Z,101301.88
2023-01-26T12:25:20.351Z,101295.84
2023-01-26T12:27:57.314Z,101288.13
2023-01-26T12:30:42.755Z,101292.41
2023-01-26T12:33:12.164Z,101282.91
2023-01-26T12:36:05.132Z,101286.38
2023-01-26T12:38:54.116Z,101285.50
2023-01-26T12:41:34.718Z,101276.81
2023-01-26T12:44:23.256Z,101271.66
2023-01-26T12:46:57.319Z,101275.97
2023-01-26T12:49:33.247Z,101280.25
2023-01-26T12:52:09.517Z,101277.72
2023-01-26T12:54:46.533Z,101259.66
2023-01-26T12:57:20.485Z,101263.16
2023-01-26T12:59:50.578Z,101263.22
2023-01-26T13:02:29.681Z,101263.22
2023-01-26T13:05:00.700Z,101257.19
2023-01-26T13:07:36.381Z,101255.41
2023-01-26T13:10:44.755Z,101263.09
2023-01-26T13:13:32.395Z,101262.25
2023-01-26T13:16:35.273Z,101263.09
2023-01-26T13:19:04.982Z,101260.50
2023-01-26T13:21:46.757Z,101268.25
2023-01-26T13:24:44.097Z,101263.03
2023-01-26T13:27:32.997Z,101261.25
2023-01-26T13:30:01.888Z,101269.91
2023-01-26T13:33:03.138Z,101265.66
2023-01-26T13:35:33.974Z,101253.63
2023-01-26T13:38:15.342Z,101260.59
2023-01-26T13:40:47.943Z,101264.91
2023-01-26T13:43:27.493Z,101261.47
2023-01-26T13:46:09.817Z,101255.44
2023-01-26T13:48:47.291Z,101260.59
2023-01-26T13:51:19.517Z,101264.91
2023-01-26T13:53:59.045Z,101264.03
2023-01-26T13:56:32.225Z,101270.97
2023-01-26T13:59:14.928Z,101262.31
2023-01-26T14:01:46.286Z,101259.72
2023-01-26T14:04:20.822Z,101262.31
2023-01-26T14:06:56.296Z,101262.31
2023-01-26T14:09:26.954Z,101273.56
2023-01-26T14:12:02.438Z,101264.91
2023-01-26T14:14:37.279Z,101274.38
2023-01-26T14:17:09.766Z,101267.47
2023-01-26T14:19:42.443Z,101278.72
2023-01-26T14:22:14.907Z,101282.22
2023-01-26T14:24:44.148Z,101283.97
2023-01-26T14:27:32.245Z,101277.03
2023-01-26T14:30:04.996Z,101275.31
2023-01-26T14:32:33.567Z,101283.91
2023-01-26T14:35:02.150Z,101289.88
2023-01-26T14:37:30.872Z,101284.63
2023-01-26T14:40:21.449Z,101288.00
2023-01-26T14:42:52.149Z,101293.22
2023-01-26T14:45:30.154Z,101295.84
2023-01-26T14:48:02.234Z,101295.03
2023-01-26T14:50:32.285Z,101292.47
2023-01-26T14:53:04.079Z,101300.22
2023-01-26T14:55:36.070Z,101297.63
2023-01-26T14:58:15.480Z,101301.06
2023-01-26T15:00:50.008Z,101303.72
2023-01-26T15:03:25.986Z,101301.16
2023-01-26T15:06:20.854Z,101302.88
2023-01-26T15:09:06.590Z,101312.41
2023-01-26T15:11:55.695Z,101314.13
2023-01-26T15:14:36.018Z,101316.72
2023-01-26T15:17:06.495Z,101306.38
2023-01-26T15:19:43.061Z,101311.56
2023-01-26T15:22:23.695Z,101314.13
2023-01-26T15:25:05.894Z,101309.75
2023-01-26T15:27:36.914Z,101302.81
2023-01-26T15:30:07.967Z,101302.75
2023-01-26T15:32:41.634Z,101307.03
2023-01-26T15:35:22.790Z,101310.34
2023-01-26T15:38:00.261Z,101296.56
2023-01-26T15:40:29.604Z,101298.22
2023-01-26T15:43:13.955Z,101303.38
2023-01-26T15:45:48.086Z,101297.34
2023-01-26T15:48:17.718Z,101302.44
2023-01-26T15:50:47.332Z,101293.81
2023-01-26T15:53:17.339Z,101286.88
2023-01-26T15:55:45.840Z,101289.44
2023-01-26T15:58:14.364Z,101295.47
2023-01-26T16:00:43.089Z,101302.28
2023-01-26T16:03:16.217Z,101293.66
2023-01-26T16:05:47.947Z,101296.16
2023-01-26T16:08:17.054Z,101284.03
2023-01-26T16:10:45.984Z,101288.34
2023-01-26T16:13:17.925Z,101290.00
2023-01-26T16:15:48.750Z,101287.38
2023-01-26T16:18:17.514Z,101289.94
2023-01-26T16:20:49.622Z,101289.00
2023-01-26T16:23:21.026Z,101291.50
2023-01-26T16:25:50.889Z,101282.91
2023-01-26T16:28:19.921Z,101289.78
2023-01-26T16:30:50.849Z,101296.69
2023-01-26T16:33:21.890Z,101295.75
2023-01-26T16:35:51.589Z,101290.59
2023-01-26T16:38:20.147Z,101293.19
2023-01-26T16:40:50.086Z,101293.19
2023-01-26T16:43:23.957Z,101293.19
2023-01-26T16:45:53.199Z,101300.09
2023-01-26T16:48:22.611Z,101294.94
2023-01-26T16:50:55.220Z,101294.94
2023-01-26T16:53:28.258Z,101297.53
2023-01-26T16:55:57.028Z,101300.09
2023-01-26T16:58:26.485Z,101299.25
2023-01-26T17:00:55.168Z,101298.41
2023-01-26T17:03:23.858Z,101293.25
2023-01-26T17:05:53.426Z,101294.09
2023-01-26T17:08:21.919Z,101288.84
2023-01-26T17:11:01.623Z,101294.88
2023-01-26T17:13:31.650Z,101287.94
2023-01-26T17:16:00.297Z,101288.75
2023-01-26T17:18:28.938Z,101293.91
2023-01-26T17:21:04.702Z,101295.66
2023-01-26T17:23:33.274Z,101291.34
2023-01-26T17:26:01.892Z,101294.88
2023-01-26T17:28:30.349Z,101294.03
2023-01-26T17:31:01.115Z,101301.78
2023-01-26T17:33:30.727Z,101308.66
2023-01-26T17:36:04.014Z,101305.28
2023-01-26T17:38:32.900Z,101307.88
2023-01-26T17:41:01.741Z,101301.84
2023-01-26T17:43:30.989Z,101308.75
2023-01-26T17:46:08.695Z,101307.06
2023-01-26T17:48:38.435Z,101309.66
2023-01-26T17:51:09.645Z,101316.56
2023-01-26T17:53:39.279Z,101315.69
2023-01-26T17:56:08.792Z,101310.53
2023-01-26T17:58:37.537Z,101318.25
2023-01-26T18:01:07.501Z,101317.34
2023-01-26T18:03:36.580Z,101320.78
2023-01-26T18:06:05.494Z,101318.19
2023-01-26T18:08:35.102Z,101324.22
2023-01-26T18:11:06.711Z,101323.34
2023-01-26T18:13:35.690Z,101325.06
2023-01-26T18:16:06.267Z,101325.94
2023-01-26T18:18:35.116Z,101323.28
2023-01-26T18:21:13.055Z,101326.66
2023-01-26T18:23:46.394Z,101320.63
2023-01-26T18:26:15.234Z,101329.16
2023-01-26T18:28:44.244Z,101324.91
2023-01-26T18:31:14.629Z,101324.91
2023-01-26T18:33:43.688Z,101322.19
2023-01-26T18:36:14.696Z,101322.13
2023-01-26T18:38:49.876Z,101319.44
2023-01-26T18:41:19.457Z,101322.03
2023-01-26T18:43:50.547Z,101319.41
2023-01-26T18:46:19.094Z,101315.91
2023-01-26T18:48:47.710Z,101315.84
2023-01-26T18:51:18.150Z,101320.94
2023-01-26T18:53:47.806Z,101317.50
2023-01-26T18:56:18.354Z,101322.63
2023-01-26T18:58:46.953Z,101313.13
2023-01-26T19:01:18.589Z,101316.56
2023-01-26T19:03:48.142Z,101320.06
2023-01-26T19:06:19.738Z,101320.06
2023-01-26T19:08:57.515Z,101313.13
2023-01-26T19:11:27.874Z,101312.19
2023-01-26T19:13:56.466Z,101311.31
2023-01-26T19:16:25.268Z,101317.34
2023-01-26T19:18:54.253Z,101318.13
2023-01-26T19:21:24.540Z,101315.38
2023-01-26T19:23:57.705Z,101316.13
2023-01-26T19:26:29.320Z,101307.38
2023-01-26T19:28:58.264Z,101315.88
2023-01-26T19:31:28.006Z,101320.97
2023-01-26T19:33:58.469Z,101308.00
2023-01-26T19:36:28.858Z,101317.47
2023-01-26T19:38:58.683Z,101319.97
2023-01-26T19:41:27.349Z,101316.53
2023-01-26T19:43:55.954Z,101320.88
2023-01-26T19:46:24.789Z,101326.03
2023-01-26T19:48:53.509Z,101313.16
2023-01-26T19:51:24.041Z,101320.06
2023-01-26T19:53:56.203Z,101315.81
2023-01-26T19:56:28.571Z,101314.91
2023-01-26T19:58:59.409Z,101315.81
2023-01-26T20:01:29.283Z,101316.75
2023-01-26T20:04:00.499Z,101315.03
2023-01-26T20:06:31.069Z,101312.47
2023-01-26T20:09:00.420Z,101310.81
2023-01-26T20:11:30.610Z,101312.53
2023-01-26T20:14:00.478Z,101307.38
2023-01-26T20:16:30.053Z,101312.59
2023-01-26T20:18:59.995Z,101310.91
2023-01-26T20:21:29.462Z,101310.97
2023-01-26T20:23:57.757Z,101314.44
2023-01-26T20:26:27.431Z,101309.28
2023-01-26T20:28:58.422Z,101304.13
2023-01-26T20:31:28.090Z,101295.56
2023-01-26T20:33:58.172Z,101308.56
2023-01-26T20:36:29.419Z,101303.34
2023-01-26T20:38:58.044Z,101310.28
2023-01-26T20:41:30.090Z,101301.69
2023-01-26T20:44:03.182Z,101299.13
2023-01-26T20:46:34.044Z,101297.47
2023-01-26T20:49:03.178Z,101298.41
2023-01-26T20:51:35.675Z,101298.47
2023-01-26T20:54:07.164Z,101303.63
2023-01-26T20:56:36.514Z,101295.91
2023-01-26T20:59:07.071Z,101300.22
2023-01-26T21:01:36.444Z,101297.63
2023-01-26T21:04:06.411Z,101293.34
2023-01-26T21:06:35.247Z,101283.91
2023-01-26T21:09:05.337Z,101284.72
2023-01-26T21:11:34.908Z,101280.41
2023-01-26T21:14:04.930Z,101276.91
2023-01-26T21:16:35.605Z,101276.91
2023-01-26T21:19:03.985Z,101273.41
2023-01-26T21:21:32.473Z,101278.47
2023-01-26T21:24:01.293Z,101271.50
2023-01-26T21:26:29.797Z,101279.16
2023-01-26T21:29:00.576Z,101280.00
2023-01-26T21:31:32.325Z,101272.22
2023-01-26T21:34:01.733Z,101278.25
2023-01-26T21:36:32.247Z,101278.25
2023-01-26T21:39:02.067Z,101271.41
2023-01-26T21:41:50.273Z,101265.41
2023-01-26T21:44:20.965Z,101261.88
2023-01-26T21:46:52.871Z,101262.75
2023-01-26T21:49:22.107Z,101266.25
2023-01-26T21:52:08.611Z,101259.44
2023-01-26T21:54:37.774Z,101256.03
2023-01-26T21:57:29.648Z,101252.59
2023-01-26T21:59:57.506Z,101251.69
2023-01-26T22:02:27.071Z,101257.69
2023-01-26T22:04:55.738Z,101256.78
2023-01-26T22:07:24.288Z,101255.94
2023-01-26T22:09:52.818Z,101249.03
2023-01-26T22:12:22.880Z,101247.31
2023-01-26T22:14:52.426Z,101250.78
2023-01-26T22:17:20.602Z,101247.28
2023-01-26T22:19:50.208Z,101243.81
2023-01-26T22:22:18.726Z,101242.16
2023-01-26T22:24:47.195Z,101239.59
2023-01-26T22:27:15.733Z,101241.31
2023-01-26T22:29:44.234Z,101241.31
2023-01-26T22:32:12.815Z,101242.19
2023-01-26T22:34:41.325Z,101242.19
2023-01-26T22:37:10.863Z,101228.47
2023-01-26T22:39:39.556Z,101234.44
2023-01-26T22:42:08.143Z,101237.88
2023-01-26T22:44:36.650Z,101231.88
2023-01-26T22:47:05.272Z,101221.53
2023-01-26T22:49:33.814Z,101230.22
2023-01-26T22:52:06.495Z,101228.56
2023-01-26T22:54:36.149Z,101226.84
2023-01-26T22:57:04.497Z,101227.75
2023-01-26T22:59:32.974Z,101223.41
2023-01-26T23:02:01.533Z,101226.88
2023-01-26T23:04:30.075Z,101225.13
2023-01-26T23:06:58.684Z,101225.13
2023-01-26T23:09:27.213Z,101230.28
2023-01-26T23:12:02.468Z,101231.16
2023-01-26T23:14:31.837Z,101233.78
2023-01-26T23:17:00.211Z,101226.94
2023-01-26T23:19:30.020Z,101225.28
2023-01-26T23:21:58.540Z,101217.53
2023-01-26T23:24:27.103Z,101220.13
2023-01-26T23:26:55.677Z,101222.69
2023-01-26T23:29:25.576Z,101217.53
2023-01-26T23:31:54.506Z,101217.50
2023-01-26T23:34:23.203Z,101215.81
2023-01-26T23:36:51.394Z,101216.63
2023-01-26T23:39:19.708Z,101214.00
2023-01-26T23:41:48.288Z,101211.38
2023-01-26T23:44:16.802Z,101201.06
2023-01-26T23:46:46.360Z,101202.75
2023-01-26T23:49:14.581Z,101207.84
2023-01-26T23:51:42.780Z,101207.84
2023-01-26T23:54:11.262Z,101206.06
2023-01-26T23:56:39.447Z,101204.31
2023-01-26T23:59:07.696Z,101205.19
